ソルトレイクシティ の空港の天気 - METARとTAF

ソルト・レーク・シティ国際空港 ( KSLC / SLC ) - アメリカ ユタ州ソルトレイクシティ
飛行場実況気象(Metar)
観測時間06/17 12:54 MDT (06/17 18:54 UTC)
風向・風速不定 2m/s
視程10km以上
天気現象
少しの雲 雲底高度 2590m
少しの雲 雲底高度 3960m
全天の8割程度の雲 雲底高度 5790m
全天の8割程度の雲 雲底高度 7620m
気温26.7℃
湿度33%
気圧1010.3hPa
METARKSLC 171854Z VRB03KT 10SM FEW085 FEW130 BKN190 BKN250 27/09 A2999 RMK AO2 SLP103 VIRGA CB DSNT NW-SE TCU DSNT S AND SW ACC SW-W T02670089 VISNO NW RNWY
過去の天気等 Google飛行場航空写真 Wunderground天気予報

過去48時間のMETAR

飛行場予報(TAF)
発表時間: 6/17 11:27 MDT (6/17 17:27 UTC)
予報対象時間: 17日12時 MDT ~ 18日18時 MDT
風向・風速南南東 3m/s
視程10km以上
全天の4割程度の雲 雲底高度 3050m
全天の8割程度の雲 雲底高度 6100m
17日14時 MDT から
風向・風速西北西 5m/s
視程10km以上
天気現象周辺でしゅう雨
全天の4割程度の雲 雲底高度 2440m
全天の8割程度の雲 雲底高度 3660m
17日21時 MDT から
風向・風速南 5m/s
視程10km以上
全天の4割程度の雲 雲底高度 2440m
全天の8割程度の雲 雲底高度 4570m
18日12時 MDT から
風向・風速北西 4m/s
視程10km以上
全天の4割程度の雲 雲底高度 2440m
全天の4割程度の雲 雲底高度 4570m
KSLC 171727Z 1718/1824 15006KT P6SM SCT100 BKN200
FM172000 30009KT P6SM VCSH SCT080 BKN120
FM180300 17009KT P6SM SCT080 BKN150
FM181800 32007KT P6SM SCT080 SCT150